createdAt,value
2017-09-25T00:01:03.441Z,15.26
2017-09-25T00:02:13.373Z,15.23
2017-09-25T00:03:23.624Z,15.25
2017-09-25T00:04:33.867Z,15.19
2017-09-25T00:05:44.139Z,15.17
2017-09-25T00:06:54.647Z,15.15
2017-09-25T00:08:04.950Z,15.17
2017-09-25T00:09:15.198Z,15.22
2017-09-25T00:10:25.463Z,15.17
2017-09-25T00:11:35.727Z,15.18
2017-09-25T00:12:45.914Z,15.26
2017-09-25T00:13:56.156Z,15.22
2017-09-25T00:15:06.104Z,15.12
2017-09-25T00:16:16.360Z,15.17
2017-09-25T00:17:26.609Z,15.14
2017-09-25T00:18:36.493Z,15.14
2017-09-25T00:19:46.454Z,15.11
2017-09-25T00:20:56.385Z,15.08
2017-09-25T00:22:06.322Z,15.15
2017-09-25T00:23:16.569Z,15.12
2017-09-25T00:24:27.072Z,15.08
2017-09-25T00:25:37.321Z,14.97
2017-09-25T00:26:47.578Z,15.08
2017-09-25T00:27:57.830Z,15.04
2017-09-25T00:29:07.778Z,15.02
2017-09-25T00:30:18.325Z,14.93
2017-09-25T00:31:28.268Z,15.05
2017-09-25T00:32:38.205Z,14.9
2017-09-25T00:33:47.824Z,14.97
2017-09-25T00:34:58.076Z,14.94
2017-09-25T00:36:08.646Z,14.87
2017-09-25T00:37:18.590Z,14.9
2017-09-25T00:38:28.843Z,14.87
2017-09-25T00:39:38.782Z,14.81
2017-09-25T00:40:49.030Z,14.78
2017-09-25T00:41:59.532Z,14.77
2017-09-25T00:43:09.808Z,14.78
2017-09-25T00:44:20.062Z,14.7
2017-09-25T00:45:30.315Z,14.66
2017-09-25T00:46:40.563Z,14.67
2017-09-25T00:47:50.769Z,14.66
2017-09-25T00:49:00.704Z,14.59
2017-09-25T00:50:10.658Z,14.63
2017-09-25T00:51:20.907Z,14.66
2017-09-25T00:52:30.835Z,14.59
2017-09-25T00:53:41.032Z,14.61
2017-09-25T00:54:51.278Z,14.61
2017-09-25T00:56:01.532Z,14.56
2017-09-25T00:57:11.473Z,14.61
2017-09-25T00:58:21.399Z,14.61
2017-09-25T00:59:31.908Z,14.61
2017-09-25T01:00:41.851Z,14.62
2017-09-25T01:01:51.792Z,14.62
2017-09-25T01:03:01.725Z,14.62
2017-09-25T01:04:11.340Z,14.58
2017-09-25T01:05:21.578Z,14.53
2017-09-25T01:06:31.834Z,14.49
2017-09-25T01:07:42.115Z,14.55
2017-09-25T01:08:52.368Z,14.49
2017-09-25T01:10:02.621Z,14.48
2017-09-25T01:11:12.861Z,14.38
2017-09-25T01:12:23.119Z,14.4
2017-09-25T01:13:33.049Z,14.28
2017-09-25T01:14:43.296Z,14.25
2017-09-25T01:15:53.559Z,14.3
2017-09-25T01:17:04.058Z,14.19
2017-09-25T01:18:14.313Z,14.2
2017-09-25T01:19:24.557Z,14.13
2017-09-25T01:20:34.815Z,14.11
2017-09-25T01:21:45.061Z,14.12
2017-09-25T01:22:55.570Z,14.08
2017-09-25T01:24:05.525Z,14.16
2017-09-25T01:25:15.776Z,14.13
2017-09-25T01:26:26.037Z,14.07
2017-09-25T01:27:36.293Z,14
2017-09-25T01:28:46.193Z,14.05
2017-09-25T01:29:56.442Z,14.03
2017-09-25T01:31:06.687Z,14.03
2017-09-25T01:32:16.939Z,14.08
2017-09-25T01:33:26.880Z,14.01
2017-09-25T01:34:37.399Z,14.05
2017-09-25T01:35:47.650Z,14.08
2017-09-25T01:36:57.912Z,14.11
2017-09-25T01:38:07.851Z,14.11
2017-09-25T01:39:18.109Z,14.15
2017-09-25T01:40:28.620Z,14.18
2017-09-25T01:41:38.552Z,14.13
2017-09-25T01:42:48.797Z,14.18
2017-09-25T01:43:59.064Z,14.18
2017-09-25T01:45:09.002Z,14.13
2017-09-25T01:46:19.189Z,14.2
2017-09-25T01:47:29.451Z,14.2
2017-09-25T01:48:39.415Z,14.19
2017-09-25T01:49:49.663Z,14.22
2017-09-25T01:50:59.915Z,14.16
2017-09-25T01:52:10.106Z,14.2
2017-09-25T01:53:20.366Z,14.22
2017-09-25T01:54:30.304Z,14.18
2017-09-25T01:55:39.917Z,14.13
2017-09-25T01:56:50.171Z,14.13
2017-09-25T01:58:00.356Z,14.19
2017-09-25T01:59:10.286Z,14.18
2017-09-25T02:00:20.535Z,14.13
2017-09-25T02:01:30.786Z,14.13
2017-09-25T02:02:40.722Z,14.07
2017-09-25T02:03:50.907Z,14.03
2017-09-25T02:05:01.168Z,14.08
2017-09-25T02:06:10.800Z,14.08
2017-09-25T02:07:21.051Z,14.07
2017-09-25T02:08:31.307Z,14.13
2017-09-25T02:09:41.179Z,14.11
2017-09-25T02:10:51.442Z,14.12
2017-09-25T02:12:01.688Z,14.11
2017-09-25T02:13:11.941Z,14.13
2017-09-25T02:14:21.888Z,14.16
2017-09-25T02:15:32.073Z,14.15
2017-09-25T02:16:42.007Z,14.16
2017-09-25T02:17:52.270Z,14.2
2017-09-25T02:19:02.205Z,14.18
2017-09-25T02:20:12.139Z,14.19
2017-09-25T02:21:22.644Z,14.23
2017-09-25T02:22:32.893Z,14.22
2017-09-25T02:23:42.832Z,14.31
2017-09-25T02:24:52.773Z,14.31
2017-09-25T02:26:03.030Z,14.28
2017-09-25T02:27:13.533Z,14.25
2017-09-25T02:28:23.785Z,14.31
2017-09-25T02:29:33.717Z,14.23
2017-09-25T02:30:43.970Z,14.33
2017-09-25T02:31:54.229Z,14.26
2017-09-25T02:33:04.413Z,14.3
2017-09-25T02:34:14.047Z,14.2
2017-09-25T02:35:24.299Z,14.3
2017-09-25T02:36:34.236Z,14.3
2017-09-25T02:37:44.485Z,14.22
2017-09-25T02:38:54.992Z,14.26
2017-09-25T02:40:05.268Z,14.34
2017-09-25T02:41:15.556Z,14.26
2017-09-25T02:42:25.804Z,14.3
2017-09-25T02:43:36.064Z,14.34
2017-09-25T02:44:46.265Z,14.28
2017-09-25T02:45:56.510Z,14.28
2017-09-25T02:47:06.133Z,14.3
2017-09-25T02:48:16.394Z,14.33
2017-09-25T02:49:26.658Z,14.28
2017-09-25T02:50:37.165Z,14.31
2017-09-25T02:51:46.797Z,14.2
2017-09-25T02:52:56.741Z,14.22
2017-09-25T02:54:06.995Z,14.28
2017-09-25T02:55:17.264Z,14.2
2017-09-25T02:56:27.822Z,14.2
2017-09-25T02:57:37.441Z,14.18
2017-09-25T02:58:47.702Z,14.19
2017-09-25T02:59:57.317Z,14.13
2017-09-25T03:01:07.249Z,14.19
2017-09-25T03:02:17.754Z,14.31
2017-09-25T03:03:27.993Z,14.26
2017-09-25T03:04:38.254Z,14.22
2017-09-25T03:05:47.866Z,14.28
2017-09-25T03:06:57.803Z,14.2
2017-09-25T03:08:07.983Z,14.25
2017-09-25T03:09:18.231Z,14.25
2017-09-25T03:10:28.175Z,14.23
2017-09-25T03:11:38.111Z,14.28
2017-09-25T03:12:48.374Z,14.26
2017-09-25T03:13:58.877Z,14.28
2017-09-25T03:15:09.122Z,14.31
2017-09-25T03:16:18.747Z,14.25
2017-09-25T03:17:29.004Z,14.26
2017-09-25T03:18:39.248Z,14.26
2017-09-25T03:19:49.805Z,14.26
2017-09-25T03:20:59.747Z,14.25
2017-09-25T03:22:09.702Z,14.25
2017-09-25T03:23:19.316Z,14.2
2017-09-25T03:24:29.259Z,14.19
2017-09-25T03:25:39.142Z,14.11
2017-09-25T03:26:49.399Z,14.23
2017-09-25T03:27:59.338Z,14.15
2017-09-25T03:29:09.274Z,14.22
2017-09-25T03:30:19.223Z,14.19
2017-09-25T03:31:29.418Z,14.22
2017-09-25T03:32:38.729Z,14.19
2017-09-25T03:33:48.671Z,14.26
2017-09-25T03:34:58.971Z,14.3
2017-09-25T03:36:09.234Z,14.26
2017-09-25T03:37:19.416Z,14.26
2017-09-25T03:38:29.663Z,14.33
2017-09-25T03:39:39.609Z,14.2
2017-09-25T03:40:49.858Z,14.33
2017-09-25T03:42:00.104Z,14.25
2017-09-25T03:43:10.293Z,14.26
2017-09-25T03:44:20.554Z,14.31
2017-09-25T03:45:30.797Z,14.33
2017-09-25T03:46:41.059Z,14.28
2017-09-25T03:47:51.314Z,14.31
2017-09-25T03:49:01.335Z,14.37
2017-09-25T03:50:11.577Z,14.4
2017-09-25T03:51:21.830Z,14.33
2017-09-25T03:52:32.097Z,14.34
2017-09-25T03:53:42.341Z,14.38
2017-09-25T03:54:52.540Z,14.3
2017-09-25T03:56:02.785Z,14.43
2017-09-25T03:57:13.042Z,14.38
2017-09-25T03:58:23.291Z,14.31
2017-09-25T03:59:33.229Z,14.3
2017-09-25T04:00:43.411Z,14.28
2017-09-25T04:01:53.336Z,14.31
2017-09-25T04:03:03.268Z,14.33
2017-09-25T04:04:13.226Z,14.22
2017-09-25T04:05:23.486Z,14.3
2017-09-25T04:06:33.978Z,14.26
2017-09-25T04:07:43.919Z,14.25
2017-09-25T04:08:54.176Z,14.22
2017-09-25T04:10:04.431Z,14.23
2017-09-25T04:11:14.685Z,14.23
2017-09-25T04:12:24.943Z,14.25
2017-09-25T04:13:34.873Z,14.25
2017-09-25T04:14:45.131Z,14.28
2017-09-25T04:15:55.376Z,14.22
2017-09-25T04:17:05.328Z,14.28
2017-09-25T04:18:15.829Z,14.26
2017-09-25T04:19:25.759Z,14.2
2017-09-25T04:20:36.014Z,14.26
2017-09-25T04:21:45.950Z,14.25
2017-09-25T04:22:56.203Z,14.31
2017-09-25T04:24:06.064Z,14.26
2017-09-25T04:25:16.321Z,14.3
2017-09-25T04:26:26.587Z,14.28
2017-09-25T04:27:36.843Z,14.26
2017-09-25T04:28:47.086Z,14.28
2017-09-25T04:29:57.635Z,14.34
2017-09-25T04:31:07.254Z,14.36
2017-09-25T04:32:17.014Z,14.33
2017-09-25T04:33:26.952Z,14.4
2017-09-25T04:34:37.214Z,14.41
2017-09-25T04:35:47.410Z,14.3
2017-09-25T04:36:57.366Z,14.33
2017-09-25T04:38:07.308Z,14.28
2017-09-25T04:39:17.567Z,14.26
2017-09-25T04:40:27.500Z,14.3
2017-09-25T04:41:38.000Z,14.23
2017-09-25T04:42:48.259Z,14.2
2017-09-25T04:43:58.520Z,14.16
2017-09-25T04:45:08.456Z,14.2
2017-09-25T04:46:18.721Z,14.15
2017-09-25T04:47:29.218Z,14.15
2017-09-25T04:48:39.476Z,14.15
2017-09-25T04:49:49.745Z,14.13
2017-09-25T04:51:00.015Z,14.04
2017-09-25T04:52:10.259Z,14.11
2017-09-25T04:53:20.761Z,14.05
2017-09-25T04:54:31.011Z,14.05
2017-09-25T04:55:40.942Z,13.98
2017-09-25T04:56:51.198Z,14.01
2017-09-25T04:58:01.472Z,13.94
2017-09-25T04:59:11.998Z,13.95
2017-09-25T05:00:22.249Z,13.95
2017-09-25T05:01:32.187Z,13.97
2017-09-25T05:02:42.438Z,13.97
2017-09-25T05:03:52.690Z,13.98
2017-09-25T05:05:02.882Z,13.97
2017-09-25T05:06:12.820Z,13.86
2017-09-25T05:07:23.078Z,13.94
2017-09-25T05:08:33.327Z,13.91
2017-09-25T05:09:43.597Z,13.86
2017-09-25T05:10:54.102Z,13.89
2017-09-25T05:12:04.355Z,13.87
2017-09-25T05:13:14.298Z,13.95
2017-09-25T05:14:24.554Z,13.89
2017-09-25T05:15:34.826Z,13.91
2017-09-25T05:16:45.363Z,13.89
2017-09-25T05:17:55.013Z,13.8
2017-09-25T05:19:04.644Z,13.8
2017-09-25T05:20:14.580Z,13.78
2017-09-25T05:21:24.528Z,13.86
2017-09-25T05:22:35.036Z,13.78
2017-09-25T05:23:45.278Z,13.73
2017-09-25T05:24:55.217Z,13.8
2017-09-25T05:26:05.468Z,13.71
2017-09-25T05:27:15.729Z,13.71
2017-09-25T05:28:26.274Z,13.73
2017-09-25T05:29:36.557Z,13.78
2017-09-25T05:30:46.510Z,13.76
2017-09-25T05:31:56.143Z,13.75
2017-09-25T05:33:06.403Z,13.7
2017-09-25T05:34:16.900Z,13.73
2017-09-25T05:35:26.845Z,13.71
2017-09-25T05:36:36.783Z,13.78
2017-09-25T05:37:47.046Z,13.76
2017-09-25T05:38:57.337Z,13.78
2017-09-25T05:40:07.850Z,13.79
2017-09-25T05:41:18.112Z,13.76
2017-09-25T05:42:28.368Z,13.85
2017-09-25T05:43:38.323Z,13.82
2017-09-25T05:44:48.622Z,13.89
2017-09-25T05:45:59.124Z,13.86
2017-09-25T05:47:09.380Z,13.91
2017-09-25T05:48:19.323Z,13.87
2017-09-25T05:49:29.580Z,13.82
2017-09-25T05:50:39.520Z,13.89
2017-09-25T05:51:50.019Z,13.89
2017-09-25T05:52:59.960Z,13.87
2017-09-25T05:54:10.214Z,13.97
2017-09-25T05:55:20.516Z,14
2017-09-25T05:56:30.765Z,14.01
2017-09-25T05:57:40.967Z,13.93
2017-09-25T05:58:51.226Z,13.97
2017-09-25T06:00:01.173Z,13.98
2017-09-25T06:01:11.437Z,14.04
2017-09-25T06:02:21.696Z,13.98
2017-09-25T06:03:31.885Z,14
2017-09-25T06:04:42.142Z,14.04
2017-09-25T06:05:52.400Z,14
2017-09-25T06:07:02.669Z,14.11
2017-09-25T06:08:12.961Z,14.08
2017-09-25T06:09:23.469Z,14.13
2017-09-25T06:10:33.460Z,14.13
2017-09-25T06:11:43.732Z,14.13
2017-09-25T06:12:54.000Z,14.16
2017-09-25T06:14:03.944Z,14.22
2017-09-25T06:15:14.488Z,14.13
2017-09-25T06:16:24.440Z,14.18
2017-09-25T06:17:34.378Z,14.15
2017-09-25T06:18:44.638Z,14.12
2017-09-25T06:19:54.934Z,14.11
2017-09-25T06:21:05.444Z,14.19
2017-09-25T06:22:16.100Z,14.12
2017-09-25T06:23:26.382Z,14.13
2017-09-25T06:24:36.650Z,14.13
2017-09-25T06:25:46.927Z,14.13
2017-09-25T06:26:57.459Z,14.13
2017-09-25T06:28:07.409Z,14.16
2017-09-25T06:29:17.680Z,14.15
2017-09-25T06:30:27.644Z,14.15
2017-09-25T06:31:37.953Z,14.18
2017-09-25T06:32:48.506Z,14.2
2017-09-25T06:33:58.145Z,14.23
2017-09-25T06:35:08.413Z,14.3
2017-09-25T06:36:18.687Z,14.3
2017-09-25T06:37:28.968Z,14.25
2017-09-25T06:38:39.535Z,14.28
2017-09-25T06:39:49.816Z,14.28
2017-09-25T06:41:00.070Z,14.31
2017-09-25T06:42:10.318Z,14.25
2017-09-25T06:43:20.258Z,14.26
2017-09-25T06:44:30.815Z,14.28
2017-09-25T06:45:41.095Z,14.28
2017-09-25T06:46:51.391Z,14.25
2017-09-25T06:48:01.635Z,14.33
2017-09-25T06:49:11.588Z,14.26
2017-09-25T06:50:22.115Z,14.33
2017-09-25T06:51:32.390Z,14.36
2017-09-25T06:52:42.642Z,14.26
2017-09-25T06:53:52.904Z,14.31
2017-09-25T06:55:02.860Z,14.34
2017-09-25T06:56:13.069Z,14.51
2017-09-25T06:57:23.327Z,14.43
2017-09-25T06:58:33.605Z,14.53
2017-09-25T06:59:43.864Z,14.55
2017-09-25T07:00:54.128Z,14.52
2017-09-25T07:02:04.544Z,14.44
2017-09-25T07:03:14.610Z,14.45
2017-09-25T07:04:24.247Z,14.52
2017-09-25T07:05:34.237Z,14.59
2017-09-25T07:06:44.503Z,14.52
2017-09-25T07:07:55.034Z,14.53
2017-09-25T07:09:05.297Z,14.53
2017-09-25T07:10:15.236Z,14.53
2017-09-25T07:11:25.541Z,14.49
2017-09-25T07:12:35.809Z,14.44
2017-09-25T07:13:46.005Z,14.59
2017-09-25T07:14:55.989Z,14.45
2017-09-25T07:16:05.930Z,14.44
2017-09-25T07:17:15.872Z,14.53
2017-09-25T07:18:26.147Z,14.44
2017-09-25T07:19:36.674Z,14.43
2017-09-25T07:20:46.948Z,14.44
2017-09-25T07:21:57.251Z,14.43
2017-09-25T07:23:07.521Z,14.4
2017-09-25T07:24:17.834Z,14.37
2017-09-25T07:25:28.037Z,14.44
2017-09-25T07:26:37.977Z,14.41
2017-09-25T07:27:47.595Z,14.51
2017-09-25T07:28:57.553Z,14.48
2017-09-25T07:30:07.833Z,14.48
2017-09-25T07:31:18.335Z,14.48
2017-09-25T07:32:28.282Z,14.55
2017-09-25T07:33:38.541Z,14.59
2017-09-25T07:34:48.827Z,14.58
2017-09-25T07:35:58.471Z,14.53
2017-09-25T07:37:09.032Z,14.56
2017-09-25T07:38:19.330Z,14.53
2017-09-25T07:39:29.627Z,14.52
2017-09-25T07:40:39.573Z,14.52
2017-09-25T07:41:49.540Z,14.55
2017-09-25T07:43:00.045Z,14.51
2017-09-25T07:44:10.306Z,14.53
2017-09-25T07:45:20.561Z,14.59
2017-09-25T07:46:30.841Z,14.53
2017-09-25T07:47:41.155Z,14.59
2017-09-25T07:48:51.919Z,14.62
2017-09-25T07:50:02.191Z,14.63
2017-09-25T07:51:12.477Z,14.59
2017-09-25T07:52:22.428Z,14.58
2017-09-25T07:53:32.684Z,14.63
2017-09-25T07:54:42.871Z,14.73
2017-09-25T07:55:53.150Z,14.67
2017-09-25T07:57:03.129Z,14.71
2017-09-25T07:58:13.383Z,14.78
2017-09-25T07:59:23.634Z,14.77
2017-09-25T08:00:33.845Z,14.77
2017-09-25T08:01:43.802Z,14.81
2017-09-25T08:02:53.744Z,14.82
2017-09-25T08:04:04.003Z,14.81
2017-09-25T08:05:13.946Z,14.81
2017-09-25T08:06:24.195Z,14.9
2017-09-25T08:07:34.467Z,14.85
2017-09-25T08:08:44.418Z,14.97
2017-09-25T08:09:54.695Z,14.99
2017-09-25T08:11:04.998Z,15
2017-09-25T08:12:15.512Z,14.97
2017-09-25T08:13:25.489Z,15
2017-09-25T08:14:35.753Z,14.99
2017-09-25T08:15:45.718Z,14.96
2017-09-25T08:16:55.989Z,14.93
2017-09-25T08:18:06.544Z,14.94
2017-09-25T08:19:16.797Z,14.92
2017-09-25T08:20:26.744Z,15
2017-09-25T08:21:36.693Z,14.86
2017-09-25T08:22:46.330Z,14.9
2017-09-25T08:23:56.838Z,14.82
2017-09-25T08:25:07.112Z,14.96
2017-09-25T08:26:17.403Z,14.85
2017-09-25T08:27:27.358Z,14.94
2017-09-25T08:28:37.632Z,14.92
2017-09-25T08:29:48.165Z,14.94
2017-09-25T08:30:57.816Z,14.86
2017-09-25T08:32:07.450Z,14.86
2017-09-25T08:33:17.742Z,14.81
2017-09-25T08:34:28.030Z,14.87
2017-09-25T08:35:38.247Z,14.9
2017-09-25T08:36:48.198Z,14.9
2017-09-25T08:37:58.452Z,14.92
2017-09-25T08:39:08.731Z,14.9
2017-09-25T08:40:18.715Z,14.92
2017-09-25T08:41:29.294Z,14.9
2017-09-25T08:42:39.541Z,14.87
2017-09-25T08:43:49.493Z,14.99
2017-09-25T08:44:59.762Z,14.99
2017-09-25T08:46:10.052Z,14.94
2017-09-25T08:47:20.636Z,14.97
2017-09-25T08:48:30.984Z,15
2017-09-25T08:49:41.291Z,15.02
2017-09-25T08:50:51.548Z,14.93
2017-09-25T08:52:01.857Z,14.94
2017-09-25T08:53:12.064Z,14.93
2017-09-25T08:54:22.337Z,14.99
2017-09-25T08:55:32.297Z,15
2017-09-25T08:56:42.567Z,14.94
2017-09-25T08:57:52.827Z,14.92
2017-09-25T08:59:03.457Z,14.96
2017-09-25T09:00:13.725Z,14.97
2017-09-25T09:01:24.050Z,14.97
2017-09-25T09:02:34.302Z,14.97
2017-09-25T09:03:44.576Z,15.07
2017-09-25T09:04:55.176Z,14.99
2017-09-25T09:06:04.487Z,15.05
2017-09-25T09:07:14.747Z,14.96
2017-09-25T09:08:24.380Z,14.99
2017-09-25T09:09:34.637Z,15.07
2017-09-25T09:10:45.270Z,14.86
2017-09-25T09:11:55.540Z,14.9
2017-09-25T09:13:05.810Z,14.94
2017-09-25T09:14:15.754Z,14.9
2017-09-25T09:15:25.742Z,14.92
2017-09-25T09:16:36.639Z,14.9
2017-09-25T09:17:46.901Z,15.05
2017-09-25T09:18:57.167Z,14.9
2017-09-25T09:20:07.432Z,14.97
2017-09-25T09:21:17.712Z,14.96
2017-09-25T09:22:28.329Z,15.07
2017-09-25T09:23:38.584Z,15.02
2017-09-25T09:24:48.843Z,15.04
2017-09-25T09:25:59.099Z,15.07
2017-09-25T09:27:09.378Z,14.96
2017-09-25T09:28:19.673Z,14.97
2017-09-25T09:29:29.925Z,14.99
2017-09-25T09:30:39.883Z,15.04
2017-09-25T09:31:49.517Z,14.94
2017-09-25T09:32:59.808Z,15
2017-09-25T09:34:10.383Z,14.93
2017-09-25T09:35:20.334Z,14.94
2017-09-25T09:36:30.274Z,14.86
2017-09-25T09:37:40.532Z,14.93
2017-09-25T09:38:50.794Z,14.86
2017-09-25T09:40:01.361Z,14.9
2017-09-25T09:41:11.295Z,14.87
2017-09-25T09:42:21.243Z,14.89
2017-09-25T09:43:31.197Z,14.77
2017-09-25T09:44:41.486Z,14.86
2017-09-25T09:45:51.690Z,14.81
2017-09-25T09:47:01.979Z,14.74
2017-09-25T09:48:12.251Z,14.73
2017-09-25T09:49:22.209Z,14.71
2017-09-25T09:50:31.838Z,14.79
2017-09-25T09:51:42.131Z,14.71
2017-09-25T09:52:52.540Z,14.77
2017-09-25T09:54:02.823Z,14.78
2017-09-25T09:55:12.772Z,14.82
2017-09-25T09:56:23.043Z,14.79
2017-09-25T09:57:33.298Z,14.77
2017-09-25T09:58:43.558Z,14.85
2017-09-25T09:59:53.814Z,14.78
2017-09-25T10:01:04.076Z,14.79
2017-09-25T10:02:14.031Z,14.79
2017-09-25T10:03:24.328Z,14.79
2017-09-25T10:04:34.594Z,14.73
2017-09-25T10:05:44.541Z,14.79
2017-09-25T10:06:54.485Z,14.85
2017-09-25T10:08:04.741Z,14.79
2017-09-25T10:09:15.365Z,14.79
2017-09-25T10:10:25.630Z,14.82
2017-09-25T10:11:35.893Z,14.68
2017-09-25T10:12:45.533Z,14.74
2017-09-25T10:13:55.798Z,14.73
2017-09-25T10:15:06.114Z,14.67
2017-09-25T10:16:16.383Z,14.74
2017-09-25T10:17:26.329Z,14.73
2017-09-25T10:18:36.603Z,14.74
2017-09-25T10:19:46.868Z,14.77
2017-09-25T10:20:57.381Z,14.77
2017-09-25T10:22:07.652Z,14.59
2017-09-25T10:23:17.607Z,14.66
2017-09-25T10:24:27.864Z,14.62
2017-09-25T10:25:38.134Z,14.68
2017-09-25T10:26:48.664Z,14.82
2017-09-25T10:27:58.623Z,14.81
2017-09-25T10:29:08.878Z,14.81
2017-09-25T10:30:18.822Z,14.86
2017-09-25T10:31:28.443Z,14.89
2017-09-25T10:32:39.092Z,14.94
2017-09-25T10:33:49.347Z,14.99
2017-09-25T10:34:59.595Z,15
2017-09-25T10:36:09.570Z,15.07
2017-09-25T10:37:19.527Z,15.12
2017-09-25T10:38:29.499Z,15.19
2017-09-25T10:39:39.755Z,15.32
2017-09-25T10:40:49.707Z,15.17
2017-09-25T10:41:59.642Z,15.18
2017-09-25T10:43:09.890Z,15.26
2017-09-25T10:44:20.211Z,15.25
2017-09-25T10:45:30.202Z,15.37
2017-09-25T10:46:40.151Z,15.45
2017-09-25T10:47:50.436Z,15.5
2017-09-25T10:49:00.704Z,15.5
2017-09-25T10:50:11.215Z,15.47
2017-09-25T10:51:21.467Z,15.54
2017-09-25T10:52:31.757Z,15.73
2017-09-25T10:53:42.038Z,15.8
2017-09-25T10:54:52.297Z,15.78
2017-09-25T10:56:02.596Z,15.78
2017-09-25T10:57:12.546Z,15.87
2017-09-25T10:58:22.816Z,15.91
2017-09-25T10:59:33.114Z,15.76
2017-09-25T11:00:43.062Z,15.69
2017-09-25T11:01:53.361Z,15.63
2017-09-25T11:03:03.619Z,15.6
2017-09-25T11:04:13.873Z,15.57
2017-09-25T11:05:23.815Z,15.63
2017-09-25T11:06:33.782Z,15.63
2017-09-25T11:07:44.407Z,15.62
2017-09-25T11:08:54.676Z,15.65
2017-09-25T11:10:04.635Z,15.67
2017-09-25T11:11:14.589Z,15.63
2017-09-25T11:12:24.862Z,15.69
2017-09-25T11:13:35.475Z,15.73
2017-09-25T11:14:45.728Z,15.78
2017-09-25T11:15:55.687Z,15.84
2017-09-25T11:17:05.965Z,15.88
2017-09-25T11:18:15.926Z,15.85
2017-09-25T11:19:26.443Z,15.84
2017-09-25T11:20:36.704Z,15.87
2017-09-25T11:21:46.965Z,15.87
2017-09-25T11:22:57.233Z,15.96
2017-09-25T11:24:07.493Z,15.92
2017-09-25T11:25:18.053Z,15.83
2017-09-25T11:26:28.313Z,15.91
2017-09-25T11:27:38.579Z,15.75
2017-09-25T11:28:48.842Z,15.8
2017-09-25T11:29:59.092Z,15.87
2017-09-25T11:31:09.339Z,15.87
2017-09-25T11:32:19.611Z,15.94
2017-09-25T11:33:29.870Z,16.05
2017-09-25T11:34:39.804Z,16.12
2017-09-25T11:35:50.078Z,16.24
2017-09-25T11:37:00.582Z,16.32
2017-09-25T11:38:10.521Z,16.5
2017-09-25T11:39:20.776Z,16.77
2017-09-25T11:40:31.042Z,16.86
2017-09-25T11:41:40.998Z,16.98
2017-09-25T11:42:51.684Z,17.07
2017-09-25T11:44:01.943Z,17.14
2017-09-25T11:45:12.219Z,17.37
2017-09-25T11:46:22.478Z,17.57
2017-09-25T11:47:32.744Z,17.93
2017-09-25T11:48:43.264Z,18.12
2017-09-25T11:49:53.217Z,18.36
2017-09-25T11:51:03.178Z,18.36
2017-09-25T11:52:13.434Z,18.6
2017-09-25T11:53:23.712Z,18.3
2017-09-25T11:54:34.232Z,18.19
2017-09-25T11:55:44.491Z,18.23
2017-09-25T11:56:54.453Z,18.46
2017-09-25T11:58:04.722Z,18.28
2017-09-25T11:59:14.680Z,18.27
2017-09-25T12:00:24.991Z,18.28
2017-09-25T12:01:34.627Z,18.23
2017-09-25T12:02:44.903Z,18.21
2017-09-25T12:03:54.543Z,18.13
2017-09-25T12:05:04.826Z,17.97
2017-09-25T12:06:15.345Z,17.82
2017-09-25T12:07:25.607Z,17.68
2017-09-25T12:08:35.874Z,17.68
2017-09-25T12:09:46.146Z,17.76
2017-09-25T12:10:56.411Z,17.65
2017-09-25T12:12:06.972Z,17.69
2017-09-25T12:13:16.929Z,17.68
2017-09-25T12:14:27.199Z,17.44
2017-09-25T12:15:37.466Z,17.12
2017-09-25T12:16:47.405Z,16.97
2017-09-25T12:17:57.928Z,16.69
2017-09-25T12:19:08.203Z,16.58
2017-09-25T12:20:18.478Z,16.58
2017-09-25T12:21:28.755Z,16.65
2017-09-25T12:22:39.010Z,16.59
2017-09-25T12:23:49.581Z,16.61
2017-09-25T12:24:59.855Z,16.73
2017-09-25T12:26:09.810Z,16.77
2017-09-25T12:27:20.063Z,16.86
2017-09-25T12:28:30.005Z,16.98
2017-09-25T12:29:40.564Z,16.97
2017-09-25T12:30:50.524Z,17.12
2017-09-25T12:32:00.830Z,17.14
2017-09-25T12:33:10.787Z,17.14
2017-09-25T12:34:20.736Z,17.19
2017-09-25T12:35:31.310Z,17.12
2017-09-25T12:36:41.584Z,17.05
2017-09-25T12:37:51.848Z,17.1
2017-09-25T12:39:01.487Z,16.99
2017-09-25T12:40:11.755Z,16.84
2017-09-25T12:41:21.998Z,16.65
2017-09-25T12:42:31.948Z,16.58
2017-09-25T12:43:42.214Z,16.5
2017-09-25T12:44:52.470Z,16.47
2017-09-25T12:46:02.752Z,16.41
2017-09-25T12:47:13.376Z,16.5
2017-09-25T12:48:23.658Z,16.41
2017-09-25T12:49:33.932Z,16.43
2017-09-25T12:50:44.201Z,16.39
2017-09-25T12:51:54.462Z,16.29
2017-09-25T12:53:05.259Z,16.4
2017-09-25T12:54:14.903Z,16.41
2017-09-25T12:55:25.169Z,16.37
2017-09-25T12:56:35.124Z,16.31
2017-09-25T12:57:45.081Z,16.21
2017-09-25T12:58:55.697Z,16.09
2017-09-25T13:00:05.341Z,16.08
2017-09-25T13:01:15.619Z,16.03
2017-09-25T13:02:25.563Z,15.91
2017-09-25T13:03:35.838Z,15.88
2017-09-25T13:04:46.094Z,15.94
2017-09-25T13:05:56.046Z,15.94
2017-09-25T13:07:06.004Z,15.83
2017-09-25T13:08:15.956Z,15.75
2017-09-25T13:09:26.230Z,15.76
2017-09-25T13:10:36.411Z,15.78
2017-09-25T13:11:46.393Z,15.72
2017-09-25T13:12:56.334Z,15.65
2017-09-25T13:14:06.748Z,15.66
2017-09-25T13:15:16.888Z,15.65
2017-09-25T13:16:27.108Z,15.52
2017-09-25T13:17:37.398Z,15.48
2017-09-25T13:18:47.889Z,15.47
2017-09-25T13:19:58.155Z,15.37
2017-09-25T13:21:08.460Z,15.43
2017-09-25T13:22:18.970Z,15.29
2017-09-25T13:23:29.255Z,15.26
2017-09-25T13:24:39.541Z,15.36
2017-09-25T13:25:49.799Z,15.3
2017-09-25T13:26:59.748Z,15.39
2017-09-25T13:28:10.253Z,15.37
2017-09-25T13:29:20.193Z,15.37
2017-09-25T13:30:30.451Z,15.47
2017-09-25T13:31:40.708Z,15.43
2017-09-25T13:32:50.963Z,15.47
2017-09-25T13:34:01.171Z,15.55
2017-09-25T13:35:10.800Z,15.51
2017-09-25T13:36:21.064Z,15.69
2017-09-25T13:37:31.328Z,15.6
2017-09-25T13:38:41.595Z,15.7
2017-09-25T13:39:52.101Z,15.8
2017-09-25T13:41:02.040Z,15.73
2017-09-25T13:42:12.309Z,15.84
2017-09-25T13:43:22.480Z,15.94
2017-09-25T13:44:32.752Z,15.92
2017-09-25T13:45:43.352Z,16.06
2017-09-25T13:46:53.620Z,15.94
2017-09-25T13:48:03.876Z,16.06
2017-09-25T13:49:14.140Z,16.05
2017-09-25T13:50:24.418Z,16.12
2017-09-25T13:51:35.018Z,16.1
2017-09-25T13:52:45.280Z,16.12
2017-09-25T13:53:55.221Z,16.1
2017-09-25T13:55:05.493Z,16.08
2017-09-25T13:56:15.751Z,16.02
2017-09-25T13:57:26.041Z,16
2017-09-25T14:02:25.484Z,16.13
2017-09-25T14:03:35.755Z,16.18
2017-09-25T14:04:46.007Z,16.22
2017-09-25T14:05:56.256Z,16.25
2017-09-25T14:07:06.536Z,16.24
2017-09-25T14:08:17.052Z,16.29
2017-09-25T14:09:27.312Z,16.32
2017-09-25T14:10:37.255Z,16.32
2017-09-25T14:11:47.509Z,16.4
2017-09-25T14:12:57.768Z,16.36
2017-09-25T14:14:08.385Z,16.29
2017-09-25T14:15:18.647Z,16.34
2017-09-25T14:16:28.916Z,16.39
2017-09-25T14:17:38.874Z,16.34
2017-09-25T14:18:49.435Z,16.34
2017-09-25T14:19:59.408Z,16.36
2017-09-25T14:21:09.036Z,16.32
2017-09-25T14:22:19.290Z,16.39
2017-09-25T14:23:29.260Z,16.41
2017-09-25T14:24:39.537Z,16.43
2017-09-25T14:25:50.055Z,16.39
2017-09-25T14:27:00.333Z,16.46
2017-09-25T14:28:10.311Z,16.36
2017-09-25T14:29:20.573Z,16.46
2017-09-25T14:30:30.842Z,16.54
2017-09-25T14:31:41.456Z,16.57
2017-09-25T14:32:51.712Z,16.61
2017-09-25T14:34:01.354Z,16.66
2017-09-25T14:35:11.623Z,16.83
2017-09-25T14:36:21.587Z,16.8
2017-09-25T14:37:32.120Z,16.86
2017-09-25T14:38:42.373Z,16.84
2017-09-25T14:39:52.309Z,16.87
2017-09-25T14:41:02.275Z,16.91
2017-09-25T14:42:12.231Z,16.8
2017-09-25T14:43:22.543Z,16.86
2017-09-25T14:44:32.804Z,16.87
2017-09-25T14:45:43.068Z,16.89
2017-09-25T14:46:53.340Z,16.8
2017-09-25T14:48:03.613Z,16.82
2017-09-25T14:49:13.932Z,16.76
2017-09-25T14:50:24.194Z,16.76
2017-09-25T14:51:34.461Z,16.74
2017-09-25T14:52:44.723Z,16.73
2017-09-25T14:53:55.007Z,16.65
2017-09-25T14:55:05.308Z,16.64
2017-09-25T14:56:15.578Z,16.62
2017-09-25T14:57:25.850Z,16.58
2017-09-25T14:58:35.826Z,16.64
2017-09-25T14:59:46.120Z,16.49
2017-09-25T15:00:55.998Z,16.41
2017-09-25T15:02:06.247Z,16.39
2017-09-25T15:03:16.192Z,16.26
2017-09-25T15:04:26.153Z,16.28
2017-09-25T15:05:36.615Z,16.13
2017-09-25T15:06:47.138Z,16.16
2017-09-25T15:07:57.415Z,15.98
2017-09-25T15:09:07.356Z,15.91
2017-09-25T15:10:17.315Z,15.85
2017-09-25T15:11:27.573Z,15.75
2017-09-25T15:12:37.876Z,15.73